Time;durP1;ratioP1;P1;durP2;ratioP2;P2;SDS_P1;SDS_P2;PMS_P1;PMS_P2;Temp;Humidity;BMP_temperature;BMP_pressure;BME280_temperature;BME280_humidity;BME280_pressure;Samples;Min_cycle;Max_cycle;Signal;HPM_P1;HPM_P2
2020/12/24 00:00:49;;;;;;;13.57;12.27;;;9.60;99.90;;;;;;4945734;29;20394;-81
2020/12/24 00:03:36;;;;;;;13.13;11.73;;;9.60;99.90;;;;;;4963313;29;20531;-80
2020/12/24 00:06:22;;;;;;;;;;;;;;;;;;;;;
2020/12/24 00:08:58;;;;;;;13.93;12.30;;;9.60;99.90;;;;;;4949921;29;20413;-82
2020/12/24 00:11:47;;;;;;;14.53;13.07;;;9.60;99.90;;;;;;4967681;29;20404;-79
2020/12/24 00:15:24;;;;;;;;;;;;;;;;;;;;;
2020/12/24 00:18:11;;;;;;;10.87;9.87;;;9.70;99.90;;;;;;4944049;29;20417;-78
2020/12/24 00:21:21;;;;;;;;;;;;;;;;;;;;;
2020/12/24 00:24:36;;;;;;;13.07;11.77;;;9.80;99.90;;;;;;4966695;29;20539;-80
2020/12/24 00:27:38;;;;;;;8.80;8.00;;;9.80;99.90;;;;;;4965625;29;20824;-82
2020/12/24 00:30:45;;;;;;;;;;;;;;;;;;;;;
2020/12/24 00:33:37;;;;;;;10.30;8.03;;;9.90;99.90;;;;;;4947898;29;20830;-80
2020/12/24 00:36:38;;;;;;;8.73;8.00;;;9.90;99.90;;;;;;4964932;29;20413;-81
2020/12/24 00:39:20;;;;;;;;;;;;;;;;;;;;;
2020/12/24 00:42:12;;;;;;;8.70;7.33;;;9.90;99.90;;;;;;4966145;29;20440;-80
2020/12/24 00:44:39;;;;;;;10.73;8.13;;;9.90;99.90;;;;;;4962541;28;20521;-81
2020/12/24 00:47:35;;;;;;;8.20;7.40;;;9.90;99.90;;;;;;4966367;28;20405;-82
2020/12/24 00:50:06;;;;;;;10.40;7.17;;;9.90;99.90;;;;;;4962499;29;20402;-80
2020/12/24 00:52:46;;;;;;;;;;;;;;;;;;;;;
2020/12/24 00:55:32;;;;;;;6.50;5.93;;;9.90;99.90;;;;;;4958976;29;21010;-82
2020/12/24 00:58:08;;;;;;;6.57;5.30;;;;;;;;;;4961469;29;20406;-81
2020/12/24 01:00:35;;;;;;;6.47;5.87;;;;;;;;;;4932907;29;20469;-82
2020/12/24 01:03:11;;;;;;;6.30;5.57;;;;;;;;;;4962019;29;20417;-79
2020/12/24 01:05:37;;;;;;;5.47;5.00;;;;;;;;;;4961181;29;20416;-82
2020/12/24 01:08:07;;;;;;;4.80;4.00;;;;;;;;;;4961885;29;20453;-82
2020/12/24 01:10:33;;;;;;;4.30;3.90;;;;;;;;;;4961462;29;20755;-80
2020/12/24 01:12:59;;;;;;;4.43;4.03;;;;;;;;;;4962921;29;20555;-81
2020/12/24 01:15:37;;;;;;;4.40;3.90;;;;;;;;;;4946408;29;20461;-83
2020/12/24 01:18:23;;;;;;;;;;;;;;;;;;;;;
2020/12/24 01:20:50;;;;;;;4.77;4.47;;;;;;;;;;4943616;29;20456;-79
2020/12/24 01:23:16;;;;;;;4.30;3.90;;;;;;;;;;4943132;29;20408;-79
2020/12/24 01:25:53;;;;;;;5.50;5.00;;;;;;;;;;4928972;29;20500;-82
2020/12/24 01:28:35;;;;;;;6.37;5.73;;;;;;;;;;4946196;29;20449;-80
2020/12/24 01:31:06;;;;;;;5.10;4.70;;;;;;;;;;4944017;29;20422;-78
2020/12/24 01:34:07;;;;;;;;;;;;;;;;;;;;;
2020/12/24 01:36:45;;;;;;;4.47;4.07;;;;;;;;;;4960799;29;20421;-80
2020/12/24 01:39:12;;;;;;;3.97;3.63;;;;;;;;;;4943797;29;20465;-79
2020/12/24 01:41:38;;;;;;;3.20;3.00;;;;;;;;;;4962841;29;20413;-81
2020/12/24 01:44:10;;;;;;;2.43;2.23;;;;;;;;;;4963050;29;20954;-81
2020/12/24 01:47:04;;;;;;;3.50;3.20;;;;;;;;;;4926614;29;20496;-78
2020/12/24 01:52:44;;;;;;;;;;;;;;;;;;;;;
2020/12/24 01:55:34;;;;;;;3.50;3.20;;;;;;;;;;4958565;29;20453;-79
2020/12/24 01:58:19;;;;;;;;;;;;;;;;;;;;;
2020/12/24 02:00:58;;;;;;;3.80;3.50;;;;;;;;;;4961361;28;20412;-79
2020/12/24 02:03:32;;;;;;;3.93;3.63;;;;;;;;;;4947491;29;20410;-79
2020/12/24 02:06:24;;;;;;;3.63;3.33;;;;;;;;;;4965920;29;20454;-80
2020/12/24 02:09:07;;;;;;;3.77;3.47;;;;;;;;;;4980687;28;20491;-80
2020/12/24 02:11:35;;;;;;;3.93;3.63;;;;;;;;;;4986632;28;20484;-80
2020/12/24 02:14:28;;;;;;;4.97;4.43;;;;;;;;;;4989096;28;20510;-82
2020/12/24 02:17:26;;;;;;;3.50;3.30;;;;;;;;;;4985671;28;20494;-79
2020/12/24 02:23:02;;;;;;;5.10;4.60;;;;;;;;;;4973265;28;20925;-79
2020/12/24 02:25:30;;;;;;;3.80;3.40;;;;;;;;;;4966382;28;20494;-80
2020/12/24 02:27:57;;;;;;;4.43;4.03;;;;;;;;;;4981762;28;20762;-83
2020/12/24 02:30:33;;;;;;;;;;;;;;;;;;;;;
2020/12/24 02:33:00;;;;;;;4.00;3.60;;;;;;;;;;5001109;28;20413;-81
2020/12/24 02:35:32;;;;;;;5.13;3.77;;;;;;;;;;4999922;28;20477;-82
2020/12/24 02:38:05;;;;;;;5.57;5.07;;;;;;;;;;4981633;28;20445;-81
2020/12/24 02:40:41;;;;;;;5.43;4.93;;;;;;;;;;4998601;28;20380;-82
2020/12/24 02:43:07;;;;;;;5.27;4.80;;;;;;;;;;4998318;28;20410;-81
2020/12/24 02:45:53;;;;;;;4.90;4.50;;;;;;;;;;5000647;28;20447;-78
2020/12/24 02:48:27;;;;;;;6.30;5.70;;;;;;;;;;5003923;28;20430;-79
2020/12/24 02:50:53;;;;;;;5.30;4.90;;;;;;;;;;5004655;28;20403;-79
2020/12/24 02:53:32;;;;;;;6.50;5.20;;;;;;;;;;4985354;28;20407;-80
2020/12/24 02:56:01;;;;;;;5.97;4.47;;;;;;;;;;4982302;28;20466;-79
2020/12/24 02:58:33;;;;;;;6.10;5.13;;;;;;;;;;4997983;28;20444;-80
2020/12/24 03:01:03;;;;;;;4.97;4.47;;;;;;;;;;4998545;28;20434;-79
2020/12/24 03:03:32;;;;;;;5.30;4.80;;;;;;;;;;4979731;28;20470;-80
2020/12/24 03:06:02;;;;;;;5.60;5.20;;;;;;;;;;4997170;28;20414;-80
2020/12/24 03:08:33;;;;;;;5.13;4.83;;;;;;;;;;4997373;28;20789;-79
2020/12/24 03:11:26;;;;;;;4.87;4.47;;;;;;;;;;4998284;28;20403;-81
2020/12/24 03:14:23;;;;;;;5.03;4.63;;;;;;;;;;5002060;28;20459;-81
2020/12/24 03:17:08;;;;;;;6.90;5.00;;;;;;;;;;4990786;28;21003;-80
2020/12/24 03:20:07;;;;;;;5.07;4.60;;;;;;;;;;5000464;28;20479;-80
2020/12/24 03:22:41;;;;;;;5.17;4.73;;;;;;;;;;4982693;28;20415;-80
2020/12/24 03:25:28;;;;;;;5.70;4.90;;;;;;;;;;5000448;28;20520;-80
2020/12/24 03:27:57;;;;;;;5.57;4.50;;;;;;;;;;5000574;28;20430;-81
2020/12/24 03:30:36;;;;;;;5.83;4.40;;;;;;;;;;5000356;28;20486;-80
2020/12/24 03:33:05;;;;;;;5.00;4.50;;;;;;;;;;4983993;28;20466;-80
2020/12/24 03:35:44;;;;;;;4.93;4.43;;;;;;;;;;5001109;28;20953;-78
2020/12/24 03:38:29;;;;;;;5.17;4.77;;;;;;;;;;5000719;28;20451;-80
2020/12/24 03:41:15;;;;;;;4.40;4.00;;;;;;;;;;4985611;28;20538;-80
2020/12/24 03:43:44;;;;;;;3.77;3.47;;;;;;;;;;5018923;23;20435;-82
2020/12/24 03:46:10;;;;;;;3.93;3.63;;;;;;;;;;4986034;28;20470;-82
2020/12/24 03:48:37;;;;;;;4.80;4.27;;;;;;;;;;5005192;28;20395;-82
2020/12/24 03:51:03;;;;;;;4.97;3.70;;;;;;;;;;5003873;28;20447;-83
2020/12/24 03:53:29;;;;;;;3.40;3.10;;;;;;;;;;5004507;28;20980;-81
2020/12/24 03:55:55;;;;;;;3.47;3.17;;;;;;;;;;4986423;28;20447;-82
2020/12/24 03:58:21;;;;;;;3.33;3.03;;;;;;;;;;5001503;28;20423;-82
2020/12/24 04:00:47;;;;;;;2.20;2.07;;;;;;;;;;5004481;28;20499;-83
2020/12/24 04:03:13;;;;;;;3.10;2.30;;;;;;;;;;4970479;28;20800;-81
2020/12/24 04:05:46;;;;;;;1.80;1.70;;;;;;;;;;4989813;28;20431;-82
2020/12/24 04:08:12;;;;;;;2.27;2.10;;;;;;;;;;5004648;28;20442;-84
2020/12/24 04:10:39;;;;;;;2.20;2.00;;;;;;;;;;5004332;28;20481;-83
2020/12/24 04:13:05;;;;;;;3.03;2.77;;;;;;;;;;5004081;28;20439;-83
2020/12/24 04:15:31;;;;;;;3.20;2.23;;;;;;;;;;4998070;28;20485;-82
2020/12/24 04:17:57;;;;;;;2.00;1.80;;;;;;;;;;4997498;28;20410;-83
2020/12/24 04:20:23;;;;;;;2.63;2.30;;;;;;;;;;4998135;28;20430;-83
2020/12/24 04:22:49;;;;;;;1.77;1.67;;;;;;;;;;4982861;28;20420;-83
2020/12/24 04:25:15;;;;;;;2.47;2.10;;;;;;;;;;5011135;28;20462;-84
2020/12/24 04:27:42;;;;;;;1.93;1.37;;;;;;;;;;5008321;28;20419;-83
2020/12/24 04:30:08;;;;;;;2.10;1.90;;;;;;;;;;4992693;28;20411;-83
2020/12/24 04:32:34;;;;;;;2.43;2.20;;;;;;;;;;5016264;28;20414;-82
2020/12/24 04:35:00;;;;;;;2.17;2.07;;;;;;;;;;4981225;28;20475;-83
2020/12/24 04:37:27;;;;;;;2.70;2.20;;;;;;;;;;5009873;28;20427;-83
2020/12/24 04:39:53;;;;;;;3.73;2.40;;;;;;;;;;5009537;28;20446;-83
2020/12/24 04:42:22;;;;;;;2.67;2.47;;;;;;;;;;4997238;28;20436;-83
2020/12/24 04:44:50;;;;;;;8.07;2.17;;;;;;;;;;5015417;28;20462;-83
2020/12/24 04:47:19;;;;;;;4.53;2.50;;;;;;;;;;5016113;28;20430;-83
2020/12/24 04:49:45;;;;;;;7.83;2.10;;;;;;;;;;5015065;28;20505;-83
2020/12/24 04:52:13;;;;;;;2.50;2.30;;;;;;;;;;5016052;28;20435;-83
2020/12/24 04:54:42;;;;;;;3.37;2.33;;;;;;;;;;4982010;28;20514;-83
2020/12/24 04:57:11;;;;;;;4.00;1.90;;;;;;;;;;5015643;28;20395;-83
2020/12/24 04:59:42;;;;;;;2.30;1.97;;;;;;;;;;5014774;28;20435;-83
2020/12/24 05:02:08;;;;;;;4.00;3.60;;;;;;;;;;4982483;28;20498;-83
2020/12/24 05:04:34;;;;;;;4.20;2.00;;;;;;;;;;5016037;28;20421;-83
2020/12/24 05:07:01;;;;;;;2.57;1.80;;;;;;;;;;5015171;28;20415;-82
2020/12/24 05:09:27;;;;;;;1.90;1.67;;;;;;;;;;4997392;28;20446;-83
2020/12/24 05:11:54;;;;;;;1.70;1.30;;;;;;;;;;4998077;28;20431;-83
2020/12/24 05:14:21;;;;;;;1.80;1.43;;;;;;;;;;5015115;28;20527;-83
2020/12/24 05:17:00;;;;;;;3.17;1.70;;;;;;;;;;5015208;28;20434;-83
2020/12/24 05:19:47;;;;;;;7.80;1.60;;;;;;;;;;5015923;28;20411;-83
2020/12/24 05:22:17;;;;;;;4.57;1.90;;;;;;;;;;4968417;28;20414;-84
2020/12/24 05:24:44;;;;;;;2.33;1.50;;;;;;;;;;4996718;28;20464;-83
2020/12/24 05:27:10;;;;;;;1.40;1.30;;;;;;;;;;4978114;28;20420;-84
2020/12/24 05:29:44;;;;;;;5.07;2.10;;;;;;;;;;4977712;28;20424;-84
2020/12/24 05:32:10;;;;;;;2.43;1.50;;;;;;;;;;4993828;28;20400;-83
2020/12/24 05:34:37;;;;;;;3.50;1.57;;;;;;;;;;4985908;28;20464;-82
2020/12/24 05:37:10;;;;;;;1.77;1.67;;;;;;;;;;4983641;28;20968;-83
2020/12/24 05:39:37;;;;;;;1.83;1.67;;;;;;;;;;4964204;28;20432;-83
2020/12/24 05:42:05;;;;;;;3.13;1.93;;;;;;;;;;4966508;28;20460;-83
2020/12/24 05:44:31;;;;;;;2.90;1.77;;;;;;;;;;4972704;28;20440;-82
2020/12/24 05:46:57;;;;;;;2.10;1.70;;;;;;;;;;4983030;28;20450;-82
2020/12/24 05:49:24;;;;;;;1.83;1.73;;;;;;;;;;4983087;28;20421;-82
2020/12/24 05:51:51;;;;;;;2.03;1.93;;;;;;;;;;4967085;28;20410;-83
2020/12/24 05:54:18;;;;;;;2.63;2.13;;;;;;;;;;4967646;28;20464;-83
2020/12/24 05:56:45;;;;;;;5.90;2.70;;;;;;;;;;4966879;28;20417;-83
2020/12/24 05:59:18;;;;;;;3.63;1.87;;;;;;;;;;4983668;28;20421;-83
2020/12/24 06:02:03;;;;;;;2.73;2.03;;;;;;;;;;4966415;28;20452;-83
2020/12/24 06:04:49;;;;;;;5.43;1.90;;;;;;;;;;4983370;28;20445;-83
2020/12/24 06:07:21;;;;;;;4.87;2.50;;;;;;;;;;4984638;28;20420;-83
2020/12/24 06:09:48;;;;;;;3.10;2.30;;;;;;;;;;4966184;28;20408;-83
2020/12/24 06:12:27;;;;;;;5.57;1.80;;;;;;;;;;4984056;28;20408;-83
2020/12/24 06:14:53;;;;;;;3.90;2.00;;;;;;;;;;4983441;28;20870;-83
2020/12/24 06:17:20;;;;;;;4.13;1.73;;;;;;;;;;4984253;28;20525;-83
2020/12/24 06:19:47;;;;;;;6.90;2.13;;;;;;;;;;4984484;28;20889;-83
2020/12/24 06:22:13;;;;;;;4.50;1.90;;;;;;;;;;4984135;28;20411;-83
2020/12/24 06:24:44;;;;;;;2.27;2.03;;;;;;;;;;4985226;28;20831;-83
2020/12/24 06:27:12;;;;;;;3.67;2.30;;;;;;;;;;4977128;28;20413;-83
2020/12/24 06:29:40;;;;;;;2.40;2.20;;;;;;;;;;4962198;28;20435;-83
2020/12/24 06:32:07;;;;;;;3.00;2.30;;;;;;;;;;4978398;28;20423;-83
2020/12/24 06:34:39;;;;;;;3.53;1.77;;;;;;;;;;4977493;28;20532;-82
2020/12/24 06:37:18;;;;;;;6.90;1.87;;;;;;;;;;4977433;28;20444;-83
2020/12/24 06:39:45;;;;;;;4.67;2.00;;;;;;;;;;4994611;28;20469;-84
2020/12/24 06:42:30;;;;;;;4.13;2.67;;;;;;;;;;4977140;28;20399;-84
2020/12/24 06:44:56;;;;;;;2.47;1.50;;;;;;;;;;4976250;28;20480;-84
2020/12/24 06:47:22;;;;;;;3.00;2.10;;;;;;;;;;4988726;28;20509;-84
2020/12/24 06:49:48;;;;;;;4.80;1.60;;;;;;;;;;4971953;28;20517;-85
2020/12/24 06:52:26;;;;;;;2.27;1.77;;;;;;;;;;4986756;28;20478;-84
2020/12/24 06:55:11;;;;;;;3.37;2.07;;;;;;;;;;4987892;28;20457;-85
2020/12/24 06:57:37;;;;;;;4.87;2.33;;;;;;;;;;4969104;28;20417;-85
2020/12/24 07:00:18;;;;;;;4.93;2.60;;;;;;;;;;4969636;28;20782;-83
2020/12/24 07:02:48;;;;;;;5.20;2.20;;;;;;;;;;4969873;28;20416;-84
2020/12/24 07:05:33;;;;;;;4.57;2.03;;;;;;;;;;4969995;28;20465;-84
2020/12/24 07:07:59;;;;;;;7.03;2.27;;;;;;;;;;4986215;28;20440;-84
2020/12/24 07:10:44;;;;;;;4.37;3.07;;;;;;;;;;4984208;28;20420;-84
2020/12/24 07:13:11;;;;;;;2.93;2.00;;;;;;;;;;4966305;28;20439;-84
2020/12/24 07:15:44;;;;;;;5.73;2.17;;;;;;;;;;4965371;28;20551;-83
2020/12/24 07:18:20;;;;;;;4.03;2.10;;;;;;;;;;4965730;28;20413;-84
2020/12/24 07:20:50;;;;;;;7.97;5.23;;;;;;;;;;4966178;28;20393;-83
2020/12/24 07:23:18;;;;;;;16.20;11.83;;;;;;;;;;4977807;28;20412;-84
2020/12/24 07:25:46;;;;;;;6.93;2.37;;;;;;;;;;4998531;28;20429;-84
2020/12/24 07:28:16;;;;;;;8.03;2.27;;;;;;;;;;4998523;28;20400;-84
2020/12/24 07:30:42;;;;;;;8.17;2.70;;;;;;;;;;4994894;28;20437;-83
2020/12/24 07:33:08;;;;;;;4.13;2.07;;;;;;;;;;4967660;28;20428;-84
2020/12/24 07:35:34;;;;;;;2.00;1.60;;;;;;;;;;4985944;28;20469;-84
2020/12/24 07:38:00;;;;;;;3.73;2.83;;;;;;;;;;4970856;28;20831;-85
2020/12/24 07:40:31;;;;;;;4.07;1.90;;;;;;;;;;4956345;28;20442;-84
2020/12/24 07:43:06;;;;;;;4.70;2.13;;;;;;;;;;4970986;28;20439;-84
2020/12/24 07:45:32;;;;;;;5.17;1.93;;;;;;;;;;4987737;28;20456;-83
2020/12/24 07:48:00;;;;;;;6.40;2.40;;;;;;;;;;4989828;28;20428;-84
2020/12/24 07:50:31;;;;;;;3.07;1.70;;;;;;;;;;4970291;28;20447;-84
2020/12/24 07:52:58;;;;;;;4.03;1.77;;;;;;;;;;4989991;28;20409;-84
2020/12/24 07:55:24;;;;;;;4.83;1.40;;;;;;;;;;4975160;28;20452;-83
2020/12/24 07:57:50;;;;;;;4.50;2.03;;;;;;;;;;4991922;28;20392;-84
2020/12/24 08:00:18;;;;;;;3.03;2.27;;;;;;;;;;4973496;28;20455;-83
2020/12/24 08:03:00;;;;;;;2.93;1.90;;;;;;;;;;4988521;28;20824;-84
2020/12/24 08:05:26;;;;;;;3.93;1.80;;;;;;;;;;4956032;28;20501;-84
2020/12/24 08:07:52;;;;;;;5.17;2.17;;;;;;;;;;4987925;28;20417;-84
2020/12/24 08:10:18;;;;;;;6.93;2.13;;;;;;;;;;4970998;28;20461;-84
2020/12/24 08:12:44;;;;;;;5.63;2.00;;;;;;;;;;4988448;28;20484;-84
2020/12/24 08:15:15;;;;;;;3.10;2.20;;;;;;;;;;4989123;28;20472;-84
2020/12/24 08:18:00;;;;;;;3.50;1.33;;;;;;;;;;4989694;28;20413;-84
2020/12/24 08:20:31;;;;;;;2.90;1.60;;;;;;;;;;4989846;28;20401;-84
2020/12/24 08:23:07;;;;;;;2.30;1.47;;;;;;;;;;4955599;28;20410;-84
2020/12/24 08:25:33;;;;;;;3.13;1.73;;;;;;;;;;4985930;28;20426;-84
2020/12/24 08:27:59;;;;;;;3.23;1.90;;;;;;;;;;4968908;28;20432;-84
2020/12/24 08:30:25;;;;;;;1.97;1.60;;;;;;;;;;4985807;28;20412;-84
2020/12/24 08:32:51;;;;;;;4.63;3.90;;;;;;;;;;4985583;28;20942;-84
2020/12/24 08:35:18;;;;;;;3.87;2.20;;;;;;;;;;4968965;28;20453;-84
2020/12/24 08:37:44;;;;;;;3.73;2.13;;;;;;;;;;4986204;28;20418;-83
2020/12/24 08:40:19;;;;;;;3.50;1.43;;;;;;;;;;4986182;28;20409;-83
2020/12/24 08:42:48;;;;;;;2.57;1.60;;;;;;;;;;4986004;28;20473;-83
2020/12/24 08:45:15;;;;;;;7.07;3.00;;;;;;;;;;4968263;28;20853;-83
2020/12/24 08:47:41;;;;;;;6.17;2.47;;;;;;;;;;4985197;28;20957;-86
2020/12/24 08:50:08;;;;;;;4.37;2.00;;;;;;;;;;4984954;28;20432;-83
2020/12/24 08:52:38;;;;;;;7.00;2.37;;;;;;;;;;4951748;28;20446;-85
2020/12/24 08:55:10;;;;;;;6.87;2.50;;;;;;;;;;4965423;28;20452;-83
2020/12/24 08:57:39;;;;;;;7.90;2.23;;;;;;;;;;4985147;28;20555;-83
2020/12/24 09:00:07;;;;;;;8.07;2.57;;;;;;;;;;4987156;28;20826;-83
2020/12/24 09:02:46;;;;;;;;;;;;;;;;;;;;;
2020/12/24 09:05:13;;;;;;;3.43;2.80;;;;;;;;;;4982888;28;20446;-84
2020/12/24 09:07:56;;;;;;;5.27;2.13;;;;;;;;;;4983199;28;20402;-85
2020/12/24 09:10:26;;;;;;;6.70;2.10;;;;;;;;;;4988113;28;20861;-85
2020/12/24 09:13:02;;;;;;;3.77;1.90;;;;;;;;;;4985508;28;20475;-83
2020/12/24 09:15:29;;;;;;;5.63;2.00;;;;;;;;;;4969028;28;20457;-82
2020/12/24 09:17:56;;;;;;;9.00;2.57;;;;;;;;;;4953333;28;20429;-82
2020/12/24 09:20:22;;;;;;;5.00;2.03;;;;;;;;;;4971198;28;20971;-84
2020/12/24 09:22:52;;;;;;;8.17;3.37;;;;;;;;;;4988052;28;20430;-82
2020/12/24 09:25:47;;;;;;;8.70;2.37;;;;;;;;;;4966096;28;21094;-81
2020/12/24 09:28:24;;;;;;;8.57;1.93;;;;;;;;;;4975341;28;20438;-79
2020/12/24 09:30:51;;;;;;;7.07;2.43;;;;;;;;;;4984786;28;20408;-79
2020/12/24 09:33:18;;;;;;;4.13;1.87;;;;;;;;;;4964266;28;20466;-79
2020/12/24 09:35:44;;;;;;;7.37;1.90;;;;;;;;;;4964502;28;20468;-80
2020/12/24 09:38:10;;;;;;;4.87;1.97;;;;;;;;;;4963358;28;20424;-79
2020/12/24 09:40:38;;;;;;;4.50;2.17;;;;;;;;;;4980929;28;20433;-79
2020/12/24 09:43:04;;;;;;;5.93;2.27;;;;;;;;;;4964316;28;20409;-80
2020/12/24 09:55:09;;;;;;;3.40;1.90;;;;;;;;;;5014381;22;20548;-85
2020/12/24 09:58:06;;;;;;;5.23;3.27;;;;;;;;;;5004883;28;20458;-83
2020/12/24 10:00:35;;;;;;;2.93;1.50;;;;;;;;;;4972249;28;21000;-83
2020/12/24 10:03:02;;;;;;;1.87;1.53;;;;;;;;;;5007777;28;20883;-84
2020/12/24 10:05:28;;;;;;;7.17;2.10;;;;;;;;;;5015583;28;20433;-84
2020/12/24 10:08:33;;;;;;;;;;;;;;;;;;;;;
2020/12/24 10:11:00;;;;;;;2.67;1.40;;;;;;;;;;4976422;28;20429;-84
2020/12/24 10:13:44;;;;;;;;;;;;;;;;;;;;;
2020/12/24 10:23:25;;;;;;;4.33;2.07;;;;;;;;;;4910144;29;20410;-87
2020/12/24 10:29:21;;;;;;;7.73;2.97;;;;;;;;;;4905929;29;20403;-84
2020/12/24 10:32:11;;;;;;;8.80;2.30;;;;;;;;;;4905541;29;20795;-84
2020/12/24 10:34:46;;;;;;;6.63;1.60;;;;;;;;;;4891662;29;20501;-83
2020/12/24 10:38:21;;;;;;;5.40;2.40;;;;;;;;;;4908442;29;20460;-85
2020/12/24 10:40:52;;;;;;;7.83;2.30;;;;;;;;;;4850003;29;20457;-83
2020/12/24 10:43:21;;;;;;;8.17;2.43;;;;;;;;;;4908318;29;20453;-84
2020/12/24 10:45:58;;;;;;;3.20;1.97;;;;;;;;;;4892342;29;20463;-85
2020/12/24 10:48:24;;;;;;;7.10;2.17;;;;;;;;;;4892343;29;20432;-83
2020/12/24 10:51:03;;;;;;;13.63;2.43;;;;;;;;;;4909659;29;20404;-84
2020/12/24 10:54:13;;;;;;;8.90;2.40;;;;;;;;;;4910433;29;20476;-84
2020/12/24 10:56:50;;;;;;;2.20;2.00;;;;;;;;;;4908560;29;20437;-83
2020/12/24 10:59:19;;;;;;;4.93;2.77;;;;;;;;;;4935928;28;20929;-83
2020/12/24 11:01:49;;;;;;;6.30;2.03;;;;;;;;;;4988705;28;20506;-83
2020/12/24 11:04:16;;;;;;;3.20;1.73;;;;;;;;;;4987579;28;20420;-83
2020/12/24 11:06:47;;;;;;;2.80;1.40;;;;;;;;;;4969552;28;20424;-82
2020/12/24 11:09:20;;;;;;;2.50;1.73;;;;;;;;;;5001325;28;20391;-81
2020/12/24 11:11:46;;;;;;;3.60;2.10;;;;;;;;;;5001558;28;20424;-81
2020/12/24 11:14:12;;;;;;;4.77;1.70;;;;;;;;;;5005673;28;20547;-83
2020/12/24 11:16:39;;;;;;;5.10;2.40;;;;;;;;;;4994106;28;20802;-83
2020/12/24 11:19:05;;;;;;;4.07;2.20;;;;;;;;;;5010668;28;20444;-81
2020/12/24 11:21:34;;;;;;;2.90;1.40;;;;;;;;;;5009927;28;20420;-81
2020/12/24 11:24:06;;;;;;;3.00;1.90;;;;;;;;;;4994607;28;20427;-82
2020/12/24 11:26:46;;;;;;;;;;;;;;;;;;;;;
2020/12/24 11:29:19;;;;;;;3.40;2.30;;;;;;;;;;5007310;28;20396;-83
2020/12/24 11:31:45;;;;;;;2.13;1.93;;;;;;;;;;4983982;28;20438;-83
2020/12/24 11:34:11;;;;;;;4.07;1.90;;;;;;;;;;4985734;28;20482;-83
2020/12/24 11:36:38;;;;;;;1.67;1.43;;;;;;;;;;4987104;28;20414;-84
2020/12/24 11:39:10;;;;;;;8.47;7.03;;;;;;;;;;4986631;28;20413;-84
2020/12/24 11:41:39;;;;;;;3.13;2.27;;;;;;;;;;4969835;28;20414;-84
2020/12/24 11:44:05;;;;;;;2.70;1.60;;;;;;;;;;5004449;28;20423;-84
2020/12/24 11:46:31;;;;;;;1.57;1.20;;;;;;;;;;5004717;28;20522;-83
2020/12/24 11:49:11;;;;;;;1.57;1.20;;;;;;;;;;4975285;28;20412;-83
2020/12/24 11:51:40;;;;;;;1.70;1.17;;;;;;;;;;4976152;28;20419;-84
2020/12/24 11:54:07;;;;;;;1.57;1.47;;;;;;;;;;4990311;28;20506;-83
2020/12/24 11:56:46;;;;;;;2.00;1.80;;;;;;;;;;4991124;28;20515;-83
2020/12/24 11:59:15;;;;;;;3.83;2.70;;;;;;;;;;4994708;28;20408;-83
2020/12/24 12:01:53;;;;;;;2.33;1.97;;;;;;;;;;4992027;28;20399;-84
2020/12/24 12:04:20;;;;;;;3.53;1.90;;;;;;;;;;4990356;28;20454;-84
2020/12/24 12:06:49;;;;;;;2.00;1.50;;;;;;;;;;5010843;28;20404;-82
2020/12/24 12:09:21;;;;;;;2.63;2.00;;;;;;;;;;4995612;28;20439;-84
2020/12/24 12:11:57;;;;;;;1.93;1.40;;;;;;;;;;4992507;28;20956;-83
2020/12/24 12:14:39;;;;;;;;;;;;;;;;;;;;;
2020/12/24 12:17:27;;;;;;;1.20;1.10;;;;;;;;;;5008980;28;21001;-83
2020/12/24 12:20:00;;;;;;;1.70;1.27;;;;;;;;;;4975622;28;20408;-82
2020/12/24 12:22:54;;;;;;;;;;;;;;;;;;;;;
2020/12/24 12:25:52;;;;;;;3.53;3.23;;;;;;;;;;5011029;28;20502;-83
2020/12/24 12:28:44;;;;;;;;;;;;;;;;;;;;;
2020/12/24 12:31:32;;;;;;;1.73;1.17;;;;;;;;;;5007664;28;20478;-85
2020/12/24 12:34:05;;;;;;;1.20;0.97;;;;;;;;;;4987099;28;20411;-84
2020/12/24 12:36:42;;;;;;;;;;;;;;;;;;;;;
2020/12/24 12:39:35;;;;;;;3.57;2.30;;;;;;;;;;5005614;28;20495;-84
2020/12/24 12:42:02;;;;;;;2.80;2.50;;;;;;;;;;4988035;28;20420;-85
2020/12/24 12:44:28;;;;;;;2.03;1.00;;;;;;;;;;4988939;28;20430;-83
2020/12/24 12:47:17;;;;;;;3.40;1.00;;;9.90;99.90;;;;;;4994354;28;20612;-85
2020/12/24 12:50:36;;;;;;;0.87;0.87;;;5.90;99.90;;;;;;4995859;28;20412;-84
2020/12/24 12:53:28;;;;;;;0.85;0.80;;;5.50;99.90;;;;;;5010752;28;20529;-85
2020/12/24 12:57:14;;;;;;;1.23;0.85;;;5.20;99.90;;;;;;5009283;28;20223;-83
2020/12/24 12:59:50;;;;;;;0.90;0.90;;;4.90;99.90;;;;;;4985507;28;20239;-84
2020/12/24 13:02:25;;;;;;;1.65;1.20;;;4.70;99.90;;;;;;4988143;28;20175;-83
2020/12/24 13:05:08;;;;;;;1.00;0.93;;;4.60;99.90;;;;;;4973902;28;20184;-84
2020/12/24 13:08:05;;;;;;;1.10;1.00;;;;;;;;;;4990610;28;20243;-84
2020/12/24 13:10:39;;;;;;;1.63;1.50;;;4.20;99.90;;;;;;4990673;28;20156;-85
2020/12/24 13:13:14;;;;;;;1.90;1.80;;;4.10;99.90;;;;;;5006137;28;20268;-83
2020/12/24 13:16:21;;;;;;;1.90;1.80;;;4.10;99.90;;;;;;4973503;28;20211;-85
2020/12/24 13:19:08;;;;;;;2.15;2.05;;;4.10;99.90;;;;;;4986927;28;20180;-82
2020/12/24 13:21:38;;;;;;;1.50;1.40;;;4.00;99.90;;;;;;4988543;28;20179;-84
2020/12/24 13:24:04;;;;;;;1.40;1.30;;;3.90;99.90;;;;;;4970223;28;20188;-83
2020/12/24 13:26:30;;;;;;;4.70;4.40;;;3.90;99.90;;;;;;5003293;28;20232;-84
2020/12/24 13:28:55;;;;;;;1.30;1.20;;;3.90;99.90;;;;;;4970885;28;20236;-83
2020/12/24 13:31:21;;;;;;;1.57;1.27;;;3.80;99.90;;;;;;4969468;28;20200;-84
2020/12/24 13:33:47;;;;;;;1.70;1.60;;;3.70;99.90;;;;;;4987336;28;20406;-83
2020/12/24 13:36:13;;;;;;;1.47;1.37;;;3.60;99.90;;;;;;4987520;28;20448;-84
2020/12/24 13:38:42;;;;;;;0.70;0.70;;;3.50;99.90;;;;;;4989289;28;20180;-84
2020/12/24 13:41:11;;;;;;;1.65;1.30;;;3.50;99.90;;;;;;5006274;28;20780;-84
2020/12/24 13:43:36;;;;;;;1.80;1.23;;;3.50;99.90;;;;;;4973494;28;20204;-83
2020/12/24 13:46:11;;;;;;;1.35;0.93;;;3.60;99.90;;;;;;5004681;28;20196;-83
2020/12/24 13:48:38;;;;;;;0.90;0.90;;;3.40;99.90;;;;;;4988653;28;20179;-84
2020/12/24 13:51:05;;;;;;;1.25;0.90;;;3.40;99.90;;;;;;4989251;28;20199;-82
2020/12/24 13:53:34;;;;;;;1.10;1.00;;;3.40;99.90;;;;;;4990937;28;20158;-83
2020/12/24 13:56:16;;;;;;;1.10;1.00;;;3.40;99.90;;;;;;4988685;28;20210;-86
2020/12/24 13:58:44;;;;;;;1.42;1.10;;;3.40;99.90;;;;;;4976855;28;20417;-85
2020/12/24 14:01:14;;;;;;;1.40;1.30;;;3.40;99.90;;;;;;4996160;28;20184;-83
2020/12/24 14:03:41;;;;;;;1.33;1.23;;;3.40;99.90;;;;;;4997028;28;20418;-81
2020/12/24 14:06:13;;;;;;;1.30;1.20;;;3.50;99.90;;;;;;5009755;28;20682;-82
2020/12/24 14:08:39;;;;;;;1.25;1.15;;;3.40;99.90;;;;;;5004346;28;20183;-84
2020/12/24 14:11:06;;;;;;;1.27;1.17;;;3.50;99.90;;;;;;5004301;28;20183;-83
2020/12/24 14:13:33;;;;;;;1.23;1.10;;;3.50;99.90;;;;;;4985265;28;20183;-83
2020/12/24 14:15:59;;;;;;;2.47;1.35;;;3.50;99.90;;;;;;4970327;28;20212;-82
2020/12/24 14:18:27;;;;;;;1.85;1.42;;;3.50;99.90;;;;;;5003792;28;20173;-84
2020/12/24 14:20:53;;;;;;;3.00;1.20;;;3.50;99.90;;;;;;5002034;28;20216;-82
2020/12/24 14:23:22;;;;;;;1.65;1.40;;;3.50;99.90;;;;;;5003017;28;20164;-87
2020/12/24 14:25:48;;;;;;;1.42;1.33;;;3.50;99.90;;;;;;4985020;28;20201;-84
2020/12/24 14:28:13;;;;;;;1.10;1.00;;;3.50;99.90;;;;;;5003913;28;20179;-85
2020/12/24 14:30:49;;;;;;;3.45;1.70;;;3.40;99.90;;;;;;4988679;28;20491;-83
2020/12/24 14:33:18;;;;;;;1.33;1.23;;;3.50;99.90;;;;;;4988091;28;20182;-81
2020/12/24 14:35:47;;;;;;;1.58;1.40;;;3.40;99.90;;;;;;4986794;28;20208;-82
2020/12/24 14:38:13;;;;;;;6.10;2.25;;;3.50;99.90;;;;;;5004324;28;20168;-83
2020/12/24 14:40:38;;;;;;;1.57;1.47;;;3.50;99.90;;;;;;5004256;28;20655;-83
2020/12/24 14:43:04;;;;;;;1.30;1.20;;;3.50;99.90;;;;;;5006277;28;20443;-84
2020/12/24 14:45:32;;;;;;;1.80;1.70;;;3.50;99.90;;;;;;4990929;28;20252;-86
2020/12/24 14:48:02;;;;;;;1.70;1.45;;;3.50;99.90;;;;;;4990392;28;20169;-83
2020/12/24 14:50:37;;;;;;;3.50;1.40;;;3.50;99.90;;;;;;4989811;28;20174;-83
2020/12/24 14:53:06;;;;;;;2.15;1.50;;;3.50;99.90;;;;;;4990395;28;20181;-82
2020/12/24 14:55:32;;;;;;;1.70;1.60;;;;;;;;;;4989418;28;20231;-83
2020/12/24 14:57:59;;;;;;;2.53;2.10;;;;;;;;;;4987064;28;20200;-86
2020/12/24 15:00:25;;;;;;;4.78;4.47;;;;;;;;;;4970914;28;20181;-83
2020/12/24 15:02:51;;;;;;;2.78;2.30;;;;;;;;;;4987602;28;20568;-85
2020/12/24 15:05:27;;;;;;;1.67;1.58;;;;;;;;;;4988233;28;20674;-85
2020/12/24 15:07:56;;;;;;;2.55;2.35;;;;;;;;;;5009764;28;20152;-84
2020/12/24 15:10:22;;;;;;;2.00;1.90;;;;;;;;;;4991090;28;20573;-86
2020/12/24 15:12:48;;;;;;;2.22;2.13;;;;;;;;;;4991807;28;20180;-86
2020/12/24 15:15:24;;;;;;;;;;;;;;;;;;;;;
2020/12/24 15:17:57;;;;;;;3.47;2.53;;;;;;;;;;4994691;28;20160;-85
2020/12/24 15:20:23;;;;;;;2.10;1.90;;;;;;;;;;4993913;28;20196;-84
2020/12/24 15:22:50;;;;;;;2.83;2.63;;;;;;;;;;4994803;28;20534;-85
2020/12/24 15:25:17;;;;;;;2.90;2.70;;;;;;;;;;4995931;28;20199;-86
2020/12/24 15:27:46;;;;;;;3.17;2.00;;;;;;;;;;4991609;28;20216;-86
2020/12/24 15:30:12;;;;;;;2.78;2.58;;;;;;;;;;4993478;28;20276;-86
2020/12/24 15:32:38;;;;;;;3.92;3.63;;;;;;;;;;4996560;28;20200;-82
2020/12/24 15:35:18;;;;;;;8.93;8.32;;;;;;;;;;5015085;28;20306;-83
2020/12/24 15:37:44;;;;;;;5.93;2.78;;;;;;;;;;5014256;28;20160;-85
2020/12/24 15:40:13;;;;;;;3.22;3.03;;;;;;;;;;5015173;28;20188;-86
2020/12/24 15:42:49;;;;;;;3.00;2.80;;;;;;;;;;4990846;28;20237;-85
2020/12/24 15:45:18;;;;;;;3.50;3.20;;;;;;;;;;4993720;28;20215;-84